sensor_id;sensor_type;location;lat;lon;timestamp;temperature;humidity
5246;DHT22;54412;51.206;6.888;2023-08-06T00:00:23;16.60;99.90
5246;DHT22;54412;51.206;6.888;2023-08-06T00:02:49;16.70;99.90
5246;DHT22;54412;51.206;6.888;2023-08-06T00:05:15;16.70;99.90
5246;DHT22;54412;51.206;6.888;2023-08-06T00:07:49;16.60;99.90
5246;DHT22;54412;51.206;6.888;2023-08-06T00:10:17;16.60;99.90
5246;DHT22;54412;51.206;6.888;2023-08-06T00:12:43;16.70;99.90
5246;DHT22;54412;51.206;6.888;2023-08-06T00:15:10;16.70;99.90
5246;DHT22;54412;51.206;6.888;2023-08-06T00:17:36;16.70;99.90
5246;DHT22;54412;51.206;6.888;2023-08-06T00:20:03;16.70;99.90
5246;DHT22;54412;51.206;6.888;2023-08-06T00:22:32;16.60;99.90
5246;DHT22;54412;51.206;6.888;2023-08-06T00:24:59;16.60;99.90
5246;DHT22;54412;51.206;6.888;2023-08-06T00:27:25;16.50;99.90
5246;DHT22;54412;51.206;6.888;2023-08-06T00:29:51;16.50;99.90
5246;DHT22;54412;51.206;6.888;2023-08-06T00:32:17;16.50;99.90
5246;DHT22;54412;51.206;6.888;2023-08-06T00:34:43;16.40;99.90
5246;DHT22;54412;51.206;6.888;2023-08-06T00:37:08;16.50;99.90
5246;DHT22;54412;51.206;6.888;2023-08-06T00:39:34;16.50;99.90
5246;DHT22;54412;51.206;6.888;2023-08-06T00:41:59;16.50;99.90
5246;DHT22;54412;51.206;6.888;2023-08-06T00:44:25;16.40;99.90
5246;DHT22;54412;51.206;6.888;2023-08-06T00:46:51;16.40;99.90
5246;DHT22;54412;51.206;6.888;2023-08-06T00:49:17;16.40;99.90
5246;DHT22;54412;51.206;6.888;2023-08-06T00:51:43;16.40;99.90
5246;DHT22;54412;51.206;6.888;2023-08-06T00:54:09;16.30;99.90
5246;DHT22;54412;51.206;6.888;2023-08-06T00:56:35;16.30;99.90
5246;DHT22;54412;51.206;6.888;2023-08-06T00:59:05;16.30;99.90
5246;DHT22;54412;51.206;6.888;2023-08-06T01:01:32;16.40;99.90
5246;DHT22;54412;51.206;6.888;2023-08-06T01:03:58;16.40;99.90
5246;DHT22;54412;51.206;6.888;2023-08-06T01:09:51;16.30;99.90
5246;DHT22;54412;51.206;6.888;2023-08-06T01:15:41;16.30;99.90
5246;DHT22;54412;51.206;6.888;2023-08-06T01:18:12;16.30;99.90
5246;DHT22;54412;51.206;6.888;2023-08-06T01:20:38;16.40;99.90
5246;DHT22;54412;51.206;6.888;2023-08-06T01:23:03;16.40;99.90
5246;DHT22;54412;51.206;6.888;2023-08-06T01:25:34;16.40;99.90
5246;DHT22;54412;51.206;6.888;2023-08-06T01:28:23;16.40;99.90
5246;DHT22;54412;51.206;6.888;2023-08-06T01:30:58;16.20;99.90
5246;DHT22;54412;51.206;6.888;2023-08-06T01:33:27;16.20;99.90
5246;DHT22;54412;51.206;6.888;2023-08-06T01:35:56;16.20;99.90
5246;DHT22;54412;51.206;6.888;2023-08-06T01:38:24;16.20;99.90
5246;DHT22;54412;51.206;6.888;2023-08-06T01:40:50;16.20;99.90
5246;DHT22;54412;51.206;6.888;2023-08-06T01:43:16;16.10;99.90
5246;DHT22;54412;51.206;6.888;2023-08-06T01:45:41;16.10;99.90
5246;DHT22;54412;51.206;6.888;2023-08-06T01:48:07;16.10;99.90
5246;DHT22;54412;51.206;6.888;2023-08-06T01:50:32;16.00;99.90
5246;DHT22;54412;51.206;6.888;2023-08-06T01:52:58;16.20;99.90
5246;DHT22;54412;51.206;6.888;2023-08-06T01:55:24;16.20;99.90
5246;DHT22;54412;51.206;6.888;2023-08-06T01:57:49;16.20;99.90
5246;DHT22;54412;51.206;6.888;2023-08-06T02:00:15;16.20;99.90
5246;DHT22;54412;51.206;6.888;2023-08-06T02:02:41;16.20;99.90
5246;DHT22;54412;51.206;6.888;2023-08-06T02:05:06;16.20;99.90
5246;DHT22;54412;51.206;6.888;2023-08-06T02:07:32;16.30;99.90
5246;DHT22;54412;51.206;6.888;2023-08-06T02:09:58;16.30;99.90
5246;DHT22;54412;51.206;6.888;2023-08-06T02:12:23;16.30;99.90
5246;DHT22;54412;51.206;6.888;2023-08-06T02:14:49;16.30;99.90
5246;DHT22;54412;51.206;6.888;2023-08-06T02:17:15;16.30;99.90
5246;DHT22;54412;51.206;6.888;2023-08-06T02:19:40;16.40;99.90
5246;DHT22;54412;51.206;6.888;2023-08-06T02:22:08;16.40;99.90
5246;DHT22;54412;51.206;6.888;2023-08-06T02:24:34;16.30;99.90
5246;DHT22;54412;51.206;6.888;2023-08-06T02:26:59;16.20;99.90
5246;DHT22;54412;51.206;6.888;2023-08-06T02:29:25;16.30;99.90
5246;DHT22;54412;51.206;6.888;2023-08-06T02:31:51;16.40;99.90
5246;DHT22;54412;51.206;6.888;2023-08-06T02:34:16;16.40;99.90
5246;DHT22;54412;51.206;6.888;2023-08-06T02:36:42;16.40;99.90
5246;DHT22;54412;51.206;6.888;2023-08-06T02:39:09;16.40;99.90
5246;DHT22;54412;51.206;6.888;2023-08-06T02:41:34;16.40;99.90
5246;DHT22;54412;51.206;6.888;2023-08-06T02:44:00;16.40;99.90
5246;DHT22;54412;51.206;6.888;2023-08-06T02:46:26;16.30;99.90
5246;DHT22;54412;51.206;6.888;2023-08-06T02:48:51;16.20;99.90
5246;DHT22;54412;51.206;6.888;2023-08-06T02:51:17;16.20;99.90
5246;DHT22;54412;51.206;6.888;2023-08-06T02:53:42;16.20;99.90
5246;DHT22;54412;51.206;6.888;2023-08-06T02:56:08;16.30;99.90
5246;DHT22;54412;51.206;6.888;2023-08-06T02:58:34;16.30;99.90
5246;DHT22;54412;51.206;6.888;2023-08-06T03:01:04;16.20;99.90
5246;DHT22;54412;51.206;6.888;2023-08-06T03:03:33;16.20;99.90
5246;DHT22;54412;51.206;6.888;2023-08-06T03:05:59;16.30;99.90
5246;DHT22;54412;51.206;6.888;2023-08-06T03:08:25;16.30;99.90
5246;DHT22;54412;51.206;6.888;2023-08-06T03:10:51;16.20;99.90
5246;DHT22;54412;51.206;6.888;2023-08-06T03:13:18;16.30;99.90
5246;DHT22;54412;51.206;6.888;2023-08-06T03:15:52;16.30;99.90
5246;DHT22;54412;51.206;6.888;2023-08-06T03:18:21;16.30;99.90
5246;DHT22;54412;51.206;6.888;2023-08-06T03:20:47;16.20;99.90
5246;DHT22;54412;51.206;6.888;2023-08-06T03:23:13;16.20;99.90
5246;DHT22;54412;51.206;6.888;2023-08-06T03:25:38;16.20;99.90
5246;DHT22;54412;51.206;6.888;2023-08-06T03:28:04;16.20;99.90
5246;DHT22;54412;51.206;6.888;2023-08-06T03:30:30;16.30;99.90
5246;DHT22;54412;51.206;6.888;2023-08-06T03:32:55;16.30;99.90
5246;DHT22;54412;51.206;6.888;2023-08-06T03:35:21;16.20;99.90
5246;DHT22;54412;51.206;6.888;2023-08-06T03:37:46;16.20;99.90
5246;DHT22;54412;51.206;6.888;2023-08-06T03:40:13;16.30;99.90
5246;DHT22;54412;51.206;6.888;2023-08-06T03:42:39;16.30;99.90
5246;DHT22;54412;51.206;6.888;2023-08-06T03:45:05;16.30;99.90
5246;DHT22;54412;51.206;6.888;2023-08-06T03:47:31;16.30;99.90
5246;DHT22;54412;51.206;6.888;2023-08-06T03:49:57;16.30;99.90
5246;DHT22;54412;51.206;6.888;2023-08-06T03:52:23;16.20;99.90
5246;DHT22;54412;51.206;6.888;2023-08-06T03:54:48;16.20;99.90
5246;DHT22;54412;51.206;6.888;2023-08-06T03:57:14;16.10;99.90
5246;DHT22;54412;51.206;6.888;2023-08-06T03:59:40;16.10;99.90
5246;DHT22;54412;51.206;6.888;2023-08-06T04:02:05;16.10;99.90
5246;DHT22;54412;51.206;6.888;2023-08-06T04:04:31;16.10;99.90
5246;DHT22;54412;51.206;6.888;2023-08-06T04:06:56;16.20;99.90
5246;DHT22;54412;51.206;6.888;2023-08-06T04:09:22;16.20;99.90
5246;DHT22;54412;51.206;6.888;2023-08-06T04:11:48;16.30;99.90
5246;DHT22;54412;51.206;6.888;2023-08-06T04:14:13;16.30;99.90
5246;DHT22;54412;51.206;6.888;2023-08-06T04:16:39;16.30;99.90
5246;DHT22;54412;51.206;6.888;2023-08-06T04:19:05;16.10;99.90
5246;DHT22;54412;51.206;6.888;2023-08-06T04:21:30;16.20;99.90
5246;DHT22;54412;51.206;6.888;2023-08-06T04:23:56;16.20;99.90
5246;DHT22;54412;51.206;6.888;2023-08-06T04:26:22;16.20;99.90
5246;DHT22;54412;51.206;6.888;2023-08-06T04:28:48;16.20;99.90
5246;DHT22;54412;51.206;6.888;2023-08-06T04:31:14;16.20;99.90
5246;DHT22;54412;51.206;6.888;2023-08-06T04:33:40;16.20;99.90
5246;DHT22;54412;51.206;6.888;2023-08-06T04:36:06;16.30;99.90
5246;DHT22;54412;51.206;6.888;2023-08-06T04:38:32;16.20;99.90
5246;DHT22;54412;51.206;6.888;2023-08-06T04:40:58;16.10;99.90
5246;DHT22;54412;51.206;6.888;2023-08-06T04:43:24;16.10;99.90
5246;DHT22;54412;51.206;6.888;2023-08-06T04:45:50;16.20;99.90
5246;DHT22;54412;51.206;6.888;2023-08-06T04:48:18;16.10;99.90
5246;DHT22;54412;51.206;6.888;2023-08-06T04:50:48;16.00;99.90
5246;DHT22;54412;51.206;6.888;2023-08-06T04:53:15;16.00;99.90
5246;DHT22;54412;51.206;6.888;2023-08-06T04:55:41;16.00;99.90
5246;DHT22;54412;51.206;6.888;2023-08-06T04:58:09;15.90;99.90
5246;DHT22;54412;51.206;6.888;2023-08-06T05:00:36;15.80;99.90
5246;DHT22;54412;51.206;6.888;2023-08-06T05:03:01;15.90;99.90
5246;DHT22;54412;51.206;6.888;2023-08-06T05:05:28;16.00;99.90
5246;DHT22;54412;51.206;6.888;2023-08-06T05:07:55;15.90;99.90
5246;DHT22;54412;51.206;6.888;2023-08-06T05:10:24;16.10;99.90
5246;DHT22;54412;51.206;6.888;2023-08-06T05:12:50;16.10;99.90
5246;DHT22;54412;51.206;6.888;2023-08-06T05:15:16;16.10;99.90
5246;DHT22;54412;51.206;6.888;2023-08-06T05:17:42;16.10;99.90
5246;DHT22;54412;51.206;6.888;2023-08-06T05:20:08;16.10;99.90
5246;DHT22;54412;51.206;6.888;2023-08-06T05:22:34;16.20;99.90
5246;DHT22;54412;51.206;6.888;2023-08-06T05:24:59;16.40;99.90
5246;DHT22;54412;51.206;6.888;2023-08-06T05:27:25;16.50;99.90
5246;DHT22;54412;51.206;6.888;2023-08-06T05:29:55;16.50;99.90
5246;DHT22;54412;51.206;6.888;2023-08-06T05:32:23;16.50;99.90
5246;DHT22;54412;51.206;6.888;2023-08-06T05:34:49;16.50;99.90
5246;DHT22;54412;51.206;6.888;2023-08-06T05:37:15;16.60;99.90
5246;DHT22;54412;51.206;6.888;2023-08-06T05:39:40;16.70;99.90
5246;DHT22;54412;51.206;6.888;2023-08-06T05:42:06;16.70;99.90
5246;DHT22;54412;51.206;6.888;2023-08-06T05:44:32;16.70;99.90
5246;DHT22;54412;51.206;6.888;2023-08-06T05:46:58;16.70;99.90
5246;DHT22;54412;51.206;6.888;2023-08-06T05:49:26;16.60;99.90
5246;DHT22;54412;51.206;6.888;2023-08-06T05:51:52;16.50;99.90
5246;DHT22;54412;51.206;6.888;2023-08-06T05:54:19;16.50;99.90
5246;DHT22;54412;51.206;6.888;2023-08-06T05:56:45;16.40;99.90
5246;DHT22;54412;51.206;6.888;2023-08-06T05:59:10;16.50;99.90
5246;DHT22;54412;51.206;6.888;2023-08-06T06:01:36;16.50;99.90
5246;DHT22;54412;51.206;6.888;2023-08-06T06:04:02;16.50;99.90
5246;DHT22;54412;51.206;6.888;2023-08-06T06:06:27;16.60;99.90
5246;DHT22;54412;51.206;6.888;2023-08-06T06:08:53;16.50;99.90
5246;DHT22;54412;51.206;6.888;2023-08-06T06:11:25;16.40;99.90
5246;DHT22;54412;51.206;6.888;2023-08-06T06:13:51;16.40;99.90
5246;DHT22;54412;51.206;6.888;2023-08-06T06:16:17;16.50;99.90
5246;DHT22;54412;51.206;6.888;2023-08-06T06:18:43;16.50;99.90
5246;DHT22;54412;51.206;6.888;2023-08-06T06:21:10;16.50;99.90
5246;DHT22;54412;51.206;6.888;2023-08-06T06:23:36;16.60;99.90
5246;DHT22;54412;51.206;6.888;2023-08-06T06:26:01;16.50;99.90
5246;DHT22;54412;51.206;6.888;2023-08-06T06:28:27;16.40;99.90
5246;DHT22;54412;51.206;6.888;2023-08-06T06:30:53;16.40;99.90
5246;DHT22;54412;51.206;6.888;2023-08-06T06:33:19;16.50;99.90
5246;DHT22;54412;51.206;6.888;2023-08-06T06:35:44;16.60;99.90
5246;DHT22;54412;51.206;6.888;2023-08-06T06:38:10;16.60;99.90
5246;DHT22;54412;51.206;6.888;2023-08-06T06:40:35;16.50;99.90
5246;DHT22;54412;51.206;6.888;2023-08-06T06:43:01;16.60;99.90
5246;DHT22;54412;51.206;6.888;2023-08-06T06:45:27;16.80;99.90
5246;DHT22;54412;51.206;6.888;2023-08-06T06:47:52;16.80;99.90
5246;DHT22;54412;51.206;6.888;2023-08-06T06:50:18;16.90;99.90
5246;DHT22;54412;51.206;6.888;2023-08-06T06:52:44;16.90;99.90
5246;DHT22;54412;51.206;6.888;2023-08-06T06:55:09;16.80;99.90
5246;DHT22;54412;51.206;6.888;2023-08-06T06:57:35;16.80;99.90
5246;DHT22;54412;51.206;6.888;2023-08-06T07:00:01;16.90;99.90
5246;DHT22;54412;51.206;6.888;2023-08-06T07:02:26;16.90;99.90
5246;DHT22;54412;51.206;6.888;2023-08-06T07:04:52;16.90;99.90
5246;DHT22;54412;51.206;6.888;2023-08-06T07:07:17;16.90;99.90
5246;DHT22;54412;51.206;6.888;2023-08-06T07:09:44;17.00;99.90
5246;DHT22;54412;51.206;6.888;2023-08-06T07:12:10;17.00;99.90
5246;DHT22;54412;51.206;6.888;2023-08-06T07:14:35;17.10;99.90
5246;DHT22;54412;51.206;6.888;2023-08-06T07:17:01;17.10;99.90
5246;DHT22;54412;51.206;6.888;2023-08-06T07:19:27;17.10;99.90
5246;DHT22;54412;51.206;6.888;2023-08-06T07:21:52;17.10;99.90
5246;DHT22;54412;51.206;6.888;2023-08-06T07:24:18;17.20;99.90
5246;DHT22;54412;51.206;6.888;2023-08-06T07:26:44;17.20;99.90
5246;DHT22;54412;51.206;6.888;2023-08-06T07:29:09;17.20;99.90
5246;DHT22;54412;51.206;6.888;2023-08-06T07:31:35;17.40;99.90
5246;DHT22;54412;51.206;6.888;2023-08-06T07:34:01;17.40;99.90
5246;DHT22;54412;51.206;6.888;2023-08-06T07:36:27;17.50;99.90
5246;DHT22;54412;51.206;6.888;2023-08-06T07:38:52;17.60;99.90
5246;DHT22;54412;51.206;6.888;2023-08-06T07:41:24;17.60;99.90
5246;DHT22;54412;51.206;6.888;2023-08-06T07:43:50;17.50;99.90
5246;DHT22;54412;51.206;6.888;2023-08-06T07:46:15;17.50;99.90
5246;DHT22;54412;51.206;6.888;2023-08-06T07:48:41;17.70;99.90
5246;DHT22;54412;51.206;6.888;2023-08-06T07:51:07;17.60;99.90
5246;DHT22;54412;51.206;6.888;2023-08-06T07:53:32;17.80;99.90
5246;DHT22;54412;51.206;6.888;2023-08-06T07:55:58;17.80;99.90
5246;DHT22;54412;51.206;6.888;2023-08-06T07:58:25;17.80;99.90
5246;DHT22;54412;51.206;6.888;2023-08-06T08:00:51;18.00;99.90
5246;DHT22;54412;51.206;6.888;2023-08-06T08:03:17;18.20;99.90
5246;DHT22;54412;51.206;6.888;2023-08-06T08:05:43;18.20;99.90
5246;DHT22;54412;51.206;6.888;2023-08-06T08:08:09;18.30;99.90
5246;DHT22;54412;51.206;6.888;2023-08-06T08:10:36;18.40;99.90
5246;DHT22;54412;51.206;6.888;2023-08-06T08:13:03;18.70;99.90
5246;DHT22;54412;51.206;6.888;2023-08-06T08:15:30;18.90;99.90
5246;DHT22;54412;51.206;6.888;2023-08-06T08:17:57;19.00;99.90
5246;DHT22;54412;51.206;6.888;2023-08-06T08:20:23;19.10;99.90
5246;DHT22;54412;51.206;6.888;2023-08-06T08:22:49;18.90;99.90
5246;DHT22;54412;51.206;6.888;2023-08-06T08:25:16;18.80;99.90
5246;DHT22;54412;51.206;6.888;2023-08-06T08:27:42;18.70;99.90
5246;DHT22;54412;51.206;6.888;2023-08-06T08:30:07;18.60;99.90
5246;DHT22;54412;51.206;6.888;2023-08-06T08:32:33;18.60;99.90
5246;DHT22;54412;51.206;6.888;2023-08-06T08:34:59;18.30;99.90
5246;DHT22;54412;51.206;6.888;2023-08-06T08:37:25;18.30;99.90
5246;DHT22;54412;51.206;6.888;2023-08-06T08:39:51;18.40;99.90
5246;DHT22;54412;51.206;6.888;2023-08-06T08:42:17;18.50;99.90
5246;DHT22;54412;51.206;6.888;2023-08-06T08:44:44;18.40;99.90
5246;DHT22;54412;51.206;6.888;2023-08-06T08:47:11;18.40;99.90
5246;DHT22;54412;51.206;6.888;2023-08-06T08:49:38;18.60;99.90
5246;DHT22;54412;51.206;6.888;2023-08-06T08:52:06;18.50;99.90
5246;DHT22;54412;51.206;6.888;2023-08-06T08:54:37;18.70;99.90
5246;DHT22;54412;51.206;6.888;2023-08-06T08:57:04;18.90;99.90
5246;DHT22;54412;51.206;6.888;2023-08-06T08:59:32;19.20;99.90
5246;DHT22;54412;51.206;6.888;2023-08-06T09:02:01;19.30;99.90
5246;DHT22;54412;51.206;6.888;2023-08-06T09:04:29;19.30;99.90
5246;DHT22;54412;51.206;6.888;2023-08-06T09:06:58;19.20;99.90
5246;DHT22;54412;51.206;6.888;2023-08-06T09:09:34;19.20;99.90
5246;DHT22;54412;51.206;6.888;2023-08-06T09:12:13;19.20;99.90
5246;DHT22;54412;51.206;6.888;2023-08-06T09:14:40;19.00;99.90
5246;DHT22;54412;51.206;6.888;2023-08-06T09:17:07;18.90;99.90
5246;DHT22;54412;51.206;6.888;2023-08-06T09:19:36;19.00;99.90
5246;DHT22;54412;51.206;6.888;2023-08-06T09:22:02;19.30;99.90
5246;DHT22;54412;51.206;6.888;2023-08-06T09:24:28;19.50;99.90
5246;DHT22;54412;51.206;6.888;2023-08-06T09:26:54;19.50;99.90
5246;DHT22;54412;51.206;6.888;2023-08-06T09:29:20;19.60;99.90
5246;DHT22;54412;51.206;6.888;2023-08-06T09:31:48;19.80;99.90
5246;DHT22;54412;51.206;6.888;2023-08-06T09:34:22;19.80;99.90
5246;DHT22;54412;51.206;6.888;2023-08-06T09:36:50;19.80;99.90
5246;DHT22;54412;51.206;6.888;2023-08-06T09:39:29;19.70;99.90
5246;DHT22;54412;51.206;6.888;2023-08-06T09:41:57;19.70;99.90
5246;DHT22;54412;51.206;6.888;2023-08-06T09:44:25;19.60;99.90
5246;DHT22;54412;51.206;6.888;2023-08-06T09:46:54;19.50;99.90
5246;DHT22;54412;51.206;6.888;2023-08-06T09:49:25;19.50;99.90
5246;DHT22;54412;51.206;6.888;2023-08-06T09:51:53;19.30;99.90
5246;DHT22;54412;51.206;6.888;2023-08-06T09:54:24;19.30;99.90
5246;DHT22;54412;51.206;6.888;2023-08-06T09:56:55;19.20;99.90
5246;DHT22;54412;51.206;6.888;2023-08-06T09:59:23;19.00;99.90
5246;DHT22;54412;51.206;6.888;2023-08-06T10:01:49;18.80;99.90
5246;DHT22;54412;51.206;6.888;2023-08-06T10:04:15;18.90;99.90
5246;DHT22;54412;51.206;6.888;2023-08-06T10:06:42;18.80;99.90
5246;DHT22;54412;51.206;6.888;2023-08-06T10:09:11;18.80;99.90
5246;DHT22;54412;51.206;6.888;2023-08-06T10:11:38;18.60;99.90
5246;DHT22;54412;51.206;6.888;2023-08-06T10:14:15;18.40;99.90
5246;DHT22;54412;51.206;6.888;2023-08-06T10:16:46;18.30;99.90
5246;DHT22;54412;51.206;6.888;2023-08-06T10:19:14;18.10;99.90
5246;DHT22;54412;51.206;6.888;2023-08-06T10:21:42;18.10;99.90
5246;DHT22;54412;51.206;6.888;2023-08-06T10:24:59;17.70;99.90
5246;DHT22;54412;51.206;6.888;2023-08-06T10:32:57;17.60;99.90
5246;DHT22;54412;51.206;6.888;2023-08-06T10:35:29;17.40;99.90
5246;DHT22;54412;51.206;6.888;2023-08-06T10:38:21;17.30;99.90
5246;DHT22;54412;51.206;6.888;2023-08-06T10:40:48;17.10;99.90
5246;DHT22;54412;51.206;6.888;2023-08-06T10:43:35;17.10;99.90
5246;DHT22;54412;51.206;6.888;2023-08-06T10:46:09;16.90;99.90
5246;DHT22;54412;51.206;6.888;2023-08-06T10:48:38;17.00;99.90
5246;DHT22;54412;51.206;6.888;2023-08-06T10:51:09;16.80;99.90
5246;DHT22;54412;51.206;6.888;2023-08-06T10:53:37;16.70;99.90
5246;DHT22;54412;51.206;6.888;2023-08-06T10:56:17;16.50;99.90
5246;DHT22;54412;51.206;6.888;2023-08-06T10:58:45;16.40;99.90
5246;DHT22;54412;51.206;6.888;2023-08-06T11:01:11;16.50;99.90
5246;DHT22;54412;51.206;6.888;2023-08-06T11:03:38;16.60;99.90
5246;DHT22;54412;51.206;6.888;2023-08-06T11:06:08;16.70;99.90
5246;DHT22;54412;51.206;6.888;2023-08-06T11:08:36;16.70;99.90
5246;DHT22;54412;51.206;6.888;2023-08-06T11:11:11;16.70;99.90
5246;DHT22;54412;51.206;6.888;2023-08-06T11:13:40;16.50;99.90
5246;DHT22;54412;51.206;6.888;2023-08-06T11:16:06;16.60;99.90
5246;DHT22;54412;51.206;6.888;2023-08-06T11:18:35;16.40;99.90
5246;DHT22;54412;51.206;6.888;2023-08-06T11:21:01;16.40;99.90
5246;DHT22;54412;51.206;6.888;2023-08-06T11:23:28;16.40;99.90
5246;DHT22;54412;51.206;6.888;2023-08-06T11:25:56;16.50;99.90
5246;DHT22;54412;51.206;6.888;2023-08-06T11:28:22;16.60;99.90
5246;DHT22;54412;51.206;6.888;2023-08-06T11:30:51;16.40;99.90
5246;DHT22;54412;51.206;6.888;2023-08-06T11:33:24;16.40;99.90
5246;DHT22;54412;51.206;6.888;2023-08-06T11:35:57;16.50;99.90
5246;DHT22;54412;51.206;6.888;2023-08-06T11:38:28;16.60;99.90
5246;DHT22;54412;51.206;6.888;2023-08-06T11:40:54;16.50;99.90
5246;DHT22;54412;51.206;6.888;2023-08-06T11:43:21;16.50;99.90
5246;DHT22;54412;51.206;6.888;2023-08-06T11:45:48;16.40;99.90
5246;DHT22;54412;51.206;6.888;2023-08-06T11:48:15;16.30;99.90
5246;DHT22;54412;51.206;6.888;2023-08-06T11:50:40;16.00;99.90
5246;DHT22;54412;51.206;6.888;2023-08-06T11:53:06;16.10;99.90
5246;DHT22;54412;51.206;6.888;2023-08-06T11:55:32;16.20;99.90
5246;DHT22;54412;51.206;6.888;2023-08-06T11:58:03;16.30;99.90
5246;DHT22;54412;51.206;6.888;2023-08-06T12:00:30;16.30;99.90
5246;DHT22;54412;51.206;6.888;2023-08-06T12:02:56;16.30;99.90
5246;DHT22;54412;51.206;6.888;2023-08-06T12:05:23;16.40;99.90
5246;DHT22;54412;51.206;6.888;2023-08-06T12:07:58;16.40;99.90
5246;DHT22;54412;51.206;6.888;2023-08-06T12:10:26;16.30;99.90
5246;DHT22;54412;51.206;6.888;2023-08-06T12:12:54;16.40;99.90
5246;DHT22;54412;51.206;6.888;2023-08-06T12:15:20;16.40;99.90
5246;DHT22;54412;51.206;6.888;2023-08-06T12:17:47;16.40;99.90
5246;DHT22;54412;51.206;6.888;2023-08-06T12:20:13;16.50;99.90
5246;DHT22;54412;51.206;6.888;2023-08-06T12:22:38;16.50;99.90
5246;DHT22;54412;51.206;6.888;2023-08-06T12:25:09;16.50;99.90
5246;DHT22;54412;51.206;6.888;2023-08-06T12:27:38;16.30;99.90
5246;DHT22;54412;51.206;6.888;2023-08-06T12:30:06;16.30;99.90
5246;DHT22;54412;51.206;6.888;2023-08-06T12:32:33;16.30;99.90
5246;DHT22;54412;51.206;6.888;2023-08-06T12:34:59;16.30;99.90
5246;DHT22;54412;51.206;6.888;2023-08-06T12:37:26;16.30;99.90
5246;DHT22;54412;51.206;6.888;2023-08-06T12:39:52;16.40;99.90
5246;DHT22;54412;51.206;6.888;2023-08-06T12:42:18;16.50;99.90
5246;DHT22;54412;51.206;6.888;2023-08-06T12:44:43;16.50;99.90
5246;DHT22;54412;51.206;6.888;2023-08-06T12:47:09;16.40;99.90
5246;DHT22;54412;51.206;6.888;2023-08-06T12:49:35;16.40;99.90
5246;DHT22;54412;51.206;6.888;2023-08-06T12:52:01;16.30;99.90
5246;DHT22;54412;51.206;6.888;2023-08-06T12:54:30;16.40;99.90
5246;DHT22;54412;51.206;6.888;2023-08-06T12:57:02;16.40;99.90
5246;DHT22;54412;51.206;6.888;2023-08-06T12:59:28;16.50;99.90
5246;DHT22;54412;51.206;6.888;2023-08-06T13:01:54;16.50;99.90
5246;DHT22;54412;51.206;6.888;2023-08-06T13:04:19;16.60;99.90
5246;DHT22;54412;51.206;6.888;2023-08-06T13:06:45;16.30;99.90
5246;DHT22;54412;51.206;6.888;2023-08-06T13:09:12;16.40;99.90
5246;DHT22;54412;51.206;6.888;2023-08-06T13:11:39;16.50;99.90
5246;DHT22;54412;51.206;6.888;2023-08-06T13:14:07;16.40;99.90
5246;DHT22;54412;51.206;6.888;2023-08-06T13:16:36;16.40;99.90
5246;DHT22;54412;51.206;6.888;2023-08-06T13:19:03;16.40;99.90
5246;DHT22;54412;51.206;6.888;2023-08-06T13:24:15;16.50;99.90
5246;DHT22;54412;51.206;6.888;2023-08-06T13:26:41;16.50;99.90
5246;DHT22;54412;51.206;6.888;2023-08-06T13:29:06;16.50;99.90
5246;DHT22;54412;51.206;6.888;2023-08-06T13:31:37;16.50;99.90
5246;DHT22;54412;51.206;6.888;2023-08-06T13:34:03;16.50;99.90
5246;DHT22;54412;51.206;6.888;2023-08-06T13:36:29;16.40;99.90
5246;DHT22;54412;51.206;6.888;2023-08-06T13:38:55;16.40;99.90
5246;DHT22;54412;51.206;6.888;2023-08-06T13:41:21;16.30;99.90
5246;DHT22;54412;51.206;6.888;2023-08-06T13:43:47;16.50;99.90
5246;DHT22;54412;51.206;6.888;2023-08-06T13:46:13;16.40;99.90
5246;DHT22;54412;51.206;6.888;2023-08-06T13:48:45;16.30;99.90
5246;DHT22;54412;51.206;6.888;2023-08-06T13:51:12;16.30;99.90
5246;DHT22;54412;51.206;6.888;2023-08-06T13:53:39;16.30;99.90
5246;DHT22;54412;51.206;6.888;2023-08-06T13:56:06;16.30;99.90
5246;DHT22;54412;51.206;6.888;2023-08-06T13:58:33;16.40;99.90
5246;DHT22;54412;51.206;6.888;2023-08-06T14:00:59;16.40;99.90
5246;DHT22;54412;51.206;6.888;2023-08-06T14:03:24;16.40;99.90
5246;DHT22;54412;51.206;6.888;2023-08-06T14:05:50;16.50;99.90
5246;DHT22;54412;51.206;6.888;2023-08-06T14:08:16;16.50;99.90
5246;DHT22;54412;51.206;6.888;2023-08-06T14:10:45;16.60;99.90
5246;DHT22;54412;51.206;6.888;2023-08-06T14:13:10;16.60;99.90
5246;DHT22;54412;51.206;6.888;2023-08-06T14:15:36;16.50;99.90
5246;DHT22;54412;51.206;6.888;2023-08-06T14:18:06;16.60;99.90
5246;DHT22;54412;51.206;6.888;2023-08-06T14:20:34;16.70;99.90
5246;DHT22;54412;51.206;6.888;2023-08-06T14:23:00;16.70;99.90
5246;DHT22;54412;51.206;6.888;2023-08-06T14:25:25;16.70;99.90
5246;DHT22;54412;51.206;6.888;2023-08-06T14:27:51;16.80;99.90
5246;DHT22;54412;51.206;6.888;2023-08-06T14:30:17;16.90;99.90
5246;DHT22;54412;51.206;6.888;2023-08-06T14:32:42;16.80;99.90
5246;DHT22;54412;51.206;6.888;2023-08-06T14:35:08;16.80;99.90
5246;DHT22;54412;51.206;6.888;2023-08-06T14:37:34;16.90;99.90
5246;DHT22;54412;51.206;6.888;2023-08-06T14:39:59;17.10;99.90
5246;DHT22;54412;51.206;6.888;2023-08-06T14:42:25;17.10;99.90
5246;DHT22;54412;51.206;6.888;2023-08-06T14:44:51;17.20;99.90
5246;DHT22;54412;51.206;6.888;2023-08-06T14:47:16;17.30;99.90
5246;DHT22;54412;51.206;6.888;2023-08-06T14:49:42;17.30;99.90
5246;DHT22;54412;51.206;6.888;2023-08-06T14:52:08;17.20;99.90
5246;DHT22;54412;51.206;6.888;2023-08-06T14:54:33;17.20;99.90
5246;DHT22;54412;51.206;6.888;2023-08-06T14:56:59;17.40;99.90
5246;DHT22;54412;51.206;6.888;2023-08-06T14:59:25;17.40;99.90
5246;DHT22;54412;51.206;6.888;2023-08-06T15:01:50;17.40;99.90
5246;DHT22;54412;51.206;6.888;2023-08-06T15:04:17;17.40;99.90
5246;DHT22;54412;51.206;6.888;2023-08-06T15:06:44;17.20;99.90
5246;DHT22;54412;51.206;6.888;2023-08-06T15:09:10;17.10;99.90
5246;DHT22;54412;51.206;6.888;2023-08-06T15:11:37;17.20;99.90
5246;DHT22;54412;51.206;6.888;2023-08-06T15:14:02;17.10;99.90
5246;DHT22;54412;51.206;6.888;2023-08-06T15:16:30;17.10;99.90
5246;DHT22;54412;51.206;6.888;2023-08-06T15:18:56;17.10;99.90
5246;DHT22;54412;51.206;6.888;2023-08-06T15:21:21;17.10;99.90
5246;DHT22;54412;51.206;6.888;2023-08-06T15:23:47;17.10;99.90
5246;DHT22;54412;51.206;6.888;2023-08-06T15:26:13;17.10;99.90
5246;DHT22;54412;51.206;6.888;2023-08-06T15:28:38;17.20;99.90
5246;DHT22;54412;51.206;6.888;2023-08-06T15:31:04;17.20;99.90
5246;DHT22;54412;51.206;6.888;2023-08-06T15:33:31;17.30;99.90
5246;DHT22;54412;51.206;6.888;2023-08-06T15:35:56;17.20;99.90
5246;DHT22;54412;51.206;6.888;2023-08-06T15:38:22;17.40;99.90
5246;DHT22;54412;51.206;6.888;2023-08-06T15:40:48;17.40;99.90
5246;DHT22;54412;51.206;6.888;2023-08-06T15:43:14;17.50;99.90
5246;DHT22;54412;51.206;6.888;2023-08-06T15:45:39;17.50;99.90
5246;DHT22;54412;51.206;6.888;2023-08-06T15:48:05;17.40;99.90
5246;DHT22;54412;51.206;6.888;2023-08-06T15:50:31;17.30;99.90
5246;DHT22;54412;51.206;6.888;2023-08-06T15:52:56;17.20;99.90
5246;DHT22;54412;51.206;6.888;2023-08-06T15:55:22;17.20;99.90
5246;DHT22;54412;51.206;6.888;2023-08-06T15:57:48;17.20;99.90